Time;durP1;ratioP1;P1;durP2;ratioP2;P2;SDS_P1;SDS_P2;PMS_P1;PMS_P2;Temp;Humidity;BMP_temperature;BMP_pressure;BME280_temperature;BME280_humidity;BME280_pressure;Samples;Min_cycle;Max_cycle;Signal;HPM_P1;HPM_P2
2021/10/15 00:01:15;;;;;;;19.83;10.50;;;8.80;99.90;;;;;;4441155;32;20119;-68
2021/10/15 00:03:41;;;;;;;20.90;11.73;;;8.80;99.90;;;;;;4441034;32;20230;-67
2021/10/15 00:06:08;;;;;;;21.23;10.93;;;8.80;99.90;;;;;;4446864;32;20426;-68
2021/10/15 00:08:35;;;;;;;19.83;10.70;;;8.80;99.90;;;;;;4440227;32;20528;-67
2021/10/15 00:11:02;;;;;;;19.33;10.87;;;8.80;99.90;;;;;;4440942;32;20126;-67
2021/10/15 00:13:29;;;;;;;16.90;10.33;;;8.90;99.90;;;;;;4439619;32;20199;-67
2021/10/15 00:15:55;;;;;;;18.83;11.07;;;8.90;99.90;;;;;;4440384;32;20126;-67
2021/10/15 00:18:22;;;;;;;18.93;11.03;;;8.90;99.90;;;;;;4441123;32;20510;-67
2021/10/15 00:20:49;;;;;;;18.87;11.47;;;8.90;99.90;;;;;;4441127;32;20425;-67
2021/10/15 00:23:16;;;;;;;20.20;10.70;;;8.90;99.90;;;;;;4439064;32;20148;-67
2021/10/15 00:25:43;;;;;;;21.47;11.30;;;8.90;99.90;;;;;;4439228;32;20175;-68
2021/10/15 00:28:09;;;;;;;20.20;11.47;;;8.90;99.90;;;;;;4439148;32;20119;-68
2021/10/15 00:30:36;;;;;;;20.30;11.53;;;8.90;99.90;;;;;;4438966;32;20149;-67
2021/10/15 00:33:03;;;;;;;20.07;11.07;;;8.90;99.90;;;;;;4439422;32;20134;-66
2021/10/15 00:35:30;;;;;;;20.30;12.03;;;8.90;99.90;;;;;;4439384;32;20172;-67
2021/10/15 00:37:56;;;;;;;20.43;12.07;;;8.90;99.90;;;;;;4440340;32;20394;-67
2021/10/15 00:40:24;;;;;;;20.40;11.97;;;8.90;99.90;;;;;;4440648;32;20178;-67
2021/10/15 00:42:51;;;;;;;22.97;12.47;;;8.90;99.90;;;;;;4438637;32;20229;-67
2021/10/15 00:45:17;;;;;;;21.50;11.93;;;8.90;99.90;;;;;;4440973;32;20183;-67
2021/10/15 00:47:44;;;;;;;24.53;12.17;;;8.90;99.90;;;;;;4440471;32;20150;-67
2021/10/15 01:28:14;;;;;;;21.43;11.80;;;8.60;99.90;;;;;;4482972;31;20222;-68
2021/10/15 01:30:41;;;;;;;22.97;12.50;;;8.70;99.90;;;;;;4467944;32;20178;-67
2021/10/15 01:33:08;;;;;;;25.20;13.97;;;8.70;99.90;;;;;;4469635;32;20129;-67
2021/10/15 01:35:35;;;;;;;26.93;13.73;;;8.70;99.90;;;;;;4468087;32;20189;-68
2021/10/15 01:38:01;;;;;;;27.57;14.63;;;8.70;99.90;;;;;;4468964;32;20414;-68
2021/10/15 01:40:28;;;;;;;28.80;14.37;;;8.70;99.90;;;;;;4469180;32;20443;-66
2021/10/15 01:42:55;;;;;;;26.50;14.93;;;8.80;99.90;;;;;;4469335;32;20121;-67
2021/10/15 01:45:23;;;;;;;29.23;15.40;;;8.80;99.90;;;;;;4468610;32;20115;-68
2021/10/15 01:47:50;;;;;;;26.97;15.07;;;8.80;99.90;;;;;;4466953;32;20130;-67
2021/10/15 01:50:17;;;;;;;28.63;15.30;;;8.80;99.90;;;;;;4467596;32;20122;-68
2021/10/15 01:52:44;;;;;;;27.43;15.27;;;8.80;99.90;;;;;;4468820;32;20114;-67
2021/10/15 01:55:11;;;;;;;28.70;15.10;;;8.80;99.90;;;;;;4469410;32;20502;-68
2021/10/15 01:57:39;;;;;;;26.33;14.63;;;8.90;99.90;;;;;;4469094;32;20142;-68
2021/10/15 02:00:09;;;;;;;25.17;13.60;;;8.90;99.90;;;;;;4464241;32;20201;-68
2021/10/15 02:02:38;;;;;;;24.63;13.73;;;8.90;99.90;;;;;;4455292;32;20427;-68
2021/10/15 02:05:07;;;;;;;26.53;14.70;;;9.00;99.90;;;;;;4453269;32;20130;-68
2021/10/15 02:07:34;;;;;;;25.93;14.50;;;8.90;99.90;;;;;;4453314;32;20134;-68
2021/10/15 02:10:01;;;;;;;26.67;15.03;;;9.00;99.90;;;;;;4451908;32;20171;-67
2021/10/15 02:12:27;;;;;;;25.00;14.07;;;9.00;99.90;;;;;;4453385;32;20189;-67
2021/10/15 02:14:54;;;;;;;25.83;14.43;;;9.00;99.90;;;;;;4452450;32;20123;-67
2021/10/15 02:17:21;;;;;;;27.77;14.93;;;9.00;99.90;;;;;;4453438;32;20176;-67
2021/10/15 02:19:48;;;;;;;27.47;15.40;;;9.00;99.90;;;;;;4452295;32;20392;-68
2021/10/15 02:22:15;;;;;;;27.73;14.60;;;9.00;99.90;;;;;;4453255;32;20405;-67
2021/10/15 02:24:41;;;;;;;28.63;15.73;;;9.00;99.90;;;;;;4451805;32;20186;-68
2021/10/15 02:27:08;;;;;;;26.80;15.53;;;9.00;99.90;;;;;;4451886;32;20150;-68
2021/10/15 02:29:35;;;;;;;28.80;16.40;;;9.00;99.90;;;;;;4454999;32;20198;-68
2021/10/15 02:32:02;;;;;;;31.17;16.17;;;9.10;99.90;;;;;;4459621;32;20130;-68
2021/10/15 02:34:29;;;;;;;32.00;16.20;;;9.10;99.90;;;;;;4451240;32;20122;-68
2021/10/15 02:36:56;;;;;;;33.53;17.30;;;9.10;99.90;;;;;;4452955;32;20346;-68
2021/10/15 02:39:22;;;;;;;36.07;18.27;;;9.10;99.90;;;;;;4443879;32;20426;-68
2021/10/15 02:41:49;;;;;;;33.97;17.97;;;9.10;99.90;;;;;;4442849;32;20131;-68
2021/10/15 02:44:16;;;;;;;34.57;17.20;;;9.10;99.90;;;;;;4440838;32;20145;-68
2021/10/15 02:46:43;;;;;;;38.37;18.33;;;9.20;99.90;;;;;;4442824;32;20187;-68
2021/10/15 02:49:10;;;;;;;39.60;19.00;;;9.20;99.90;;;;;;4442396;32;20123;-67
2021/10/15 02:51:37;;;;;;;42.20;20.00;;;9.20;99.90;;;;;;4441203;32;20548;-68
2021/10/15 02:54:05;;;;;;;41.37;19.27;;;9.20;99.90;;;;;;4441094;32;20175;-68
2021/10/15 02:56:32;;;;;;;40.80;19.57;;;9.20;99.90;;;;;;4442337;32;20162;-68
2021/10/15 02:58:58;;;;;;;47.17;20.90;;;9.20;99.90;;;;;;4440758;32;20485;-68
2021/10/15 03:01:26;;;;;;;45.20;21.00;;;9.20;99.90;;;;;;4441484;32;20226;-68
2021/10/15 03:03:53;;;;;;;43.57;20.33;;;9.30;99.90;;;;;;4440732;32;20147;-68
2021/10/15 03:06:19;;;;;;;44.50;20.00;;;9.30;99.90;;;;;;4440939;32;20119;-68
2021/10/15 03:08:46;;;;;;;46.40;20.73;;;9.30;99.90;;;;;;4443757;32;20408;-68
2021/10/15 03:11:14;;;;;;;47.53;20.47;;;9.30;99.90;;;;;;4449037;32;20448;-69
2021/10/15 03:13:41;;;;;;;48.33;20.70;;;9.30;99.90;;;;;;4440772;32;20153;-68
2021/10/15 03:16:08;;;;;;;46.73;20.63;;;9.30;99.90;;;;;;4440722;32;20492;-67
2021/10/15 03:18:35;;;;;;;48.20;21.33;;;9.30;99.90;;;;;;4440541;32;20184;-67
2021/10/15 03:21:01;;;;;;;50.17;22.27;;;9.30;99.90;;;;;;4442281;32;20441;-67
2021/10/15 03:23:29;;;;;;;47.27;21.20;;;9.30;99.90;;;;;;4440456;32;20422;-68
2021/10/15 03:25:56;;;;;;;48.67;21.83;;;9.40;99.90;;;;;;4441714;32;20179;-68
2021/10/15 03:28:23;;;;;;;52.33;22.43;;;9.40;99.90;;;;;;4441740;32;20131;-67
2021/10/15 03:30:50;;;;;;;47.53;22.53;;;9.40;99.90;;;;;;4441295;32;20123;-68
2021/10/15 03:33:17;;;;;;;50.33;21.83;;;9.40;99.90;;;;;;4441962;32;20123;-68
2021/10/15 03:35:44;;;;;;;50.10;22.03;;;9.50;99.90;;;;;;4440364;32;20162;-67
2021/10/15 03:38:10;;;;;;;49.27;22.53;;;9.40;99.90;;;;;;4439964;32;20497;-68
2021/10/15 03:40:38;;;;;;;52.50;22.60;;;9.40;99.90;;;;;;4441722;32;20482;-67
2021/10/15 03:43:05;;;;;;;52.57;22.17;;;9.40;99.90;;;;;;4441953;32;20120;-68
2021/10/15 03:45:32;;;;;;;51.03;22.40;;;9.40;99.90;;;;;;4441858;32;20227;-68
2021/10/15 03:47:58;;;;;;;49.97;22.40;;;9.40;99.90;;;;;;4440173;32;20138;-68
2021/10/15 03:50:25;;;;;;;49.97;21.97;;;9.40;99.90;;;;;;4440893;32;20126;-67
2021/10/15 03:52:52;;;;;;;54.43;22.80;;;9.50;99.90;;;;;;4440291;32;20119;-68
2021/10/15 03:55:19;;;;;;;46.77;21.20;;;9.50;99.90;;;;;;4439818;32;20119;-67
2021/10/15 03:57:45;;;;;;;46.37;21.23;;;9.50;99.90;;;;;;4441556;32;20146;-67
2021/10/15 04:00:13;;;;;;;47.83;21.37;;;9.50;99.90;;;;;;4440213;32;20218;-68
2021/10/15 04:02:41;;;;;;;44.20;21.10;;;9.50;99.90;;;;;;4441615;32;20180;-68
2021/10/15 04:05:09;;;;;;;43.63;21.00;;;9.50;99.90;;;;;;4439657;32;20185;-68
2021/10/15 04:07:37;;;;;;;45.43;21.23;;;9.60;99.90;;;;;;4441521;32;20187;-67
2021/10/15 04:10:06;;;;;;;43.87;20.67;;;9.60;99.90;;;;;;4441331;32;20127;-67
2021/10/15 04:12:33;;;;;;;45.13;21.33;;;9.60;99.90;;;;;;4441234;32;20393;-67
2021/10/15 04:15:01;;;;;;;43.93;20.57;;;9.60;99.90;;;;;;4441452;32;20123;-67
2021/10/15 04:17:28;;;;;;;38.93;19.93;;;9.60;99.90;;;;;;4442239;32;20202;-67
2021/10/15 04:19:54;;;;;;;44.03;20.53;;;9.60;99.90;;;;;;4447004;32;20138;-67
2021/10/15 04:22:24;;;;;;;41.03;19.67;;;9.60;99.90;;;;;;4441497;32;20394;-67
2021/10/15 04:24:51;;;;;;;42.17;19.40;;;9.60;99.90;;;;;;4441317;32;20119;-67
2021/10/15 04:27:18;;;;;;;37.73;18.13;;;9.60;99.90;;;;;;4439133;32;20174;-68
2021/10/15 04:29:44;;;;;;;37.60;18.20;;;9.60;99.90;;;;;;4441377;32;20396;-67
2021/10/15 04:32:11;;;;;;;34.97;18.67;;;9.60;99.90;;;;;;4440242;32;20123;-67
2021/10/15 04:34:38;;;;;;;36.43;18.80;;;9.60;99.90;;;;;;4439831;32;20181;-67
2021/10/15 04:37:05;;;;;;;34.53;17.37;;;9.60;99.90;;;;;;4441260;32;20222;-67
2021/10/15 04:39:32;;;;;;;32.03;17.23;;;9.60;99.90;;;;;;4439508;32;20187;-66
2021/10/15 04:41:58;;;;;;;34.70;17.70;;;9.70;99.90;;;;;;4439480;32;20541;-67
2021/10/15 04:44:25;;;;;;;31.53;17.13;;;9.70;99.90;;;;;;4439234;32;20490;-67
2021/10/15 04:46:52;;;;;;;31.40;17.27;;;9.70;99.90;;;;;;4441308;32;20139;-67
2021/10/15 04:49:19;;;;;;;32.27;17.17;;;9.70;99.90;;;;;;4441206;32;20551;-67
2021/10/15 04:51:45;;;;;;;31.57;17.27;;;9.70;99.90;;;;;;4439441;32;20119;-67
2021/10/15 04:54:12;;;;;;;29.83;16.63;;;9.70;99.90;;;;;;4439819;32;20119;-68
2021/10/15 04:56:39;;;;;;;30.63;17.30;;;9.70;99.90;;;;;;4439204;32;20204;-67
2021/10/15 04:59:06;;;;;;;32.47;17.53;;;9.70;99.90;;;;;;4440698;32;20515;-67
2021/10/15 05:01:32;;;;;;;32.23;17.13;;;9.70;99.90;;;;;;4447021;32;20196;-67
2021/10/15 05:03:59;;;;;;;30.00;16.87;;;9.70;99.90;;;;;;4439150;32;20186;-67
2021/10/15 05:06:26;;;;;;;29.20;16.33;;;9.70;99.90;;;;;;4439043;32;20513;-67
2021/10/15 05:09:13;;;;;;;34.67;17.17;;;9.70;99.90;;;;;;4439151;32;20122;-67
2021/10/15 05:11:45;;;;;;;28.87;16.23;;;9.70;99.90;;;;;;4438743;32;20149;-68
2021/10/15 05:14:13;;;;;;;31.80;16.83;;;9.80;99.90;;;;;;4438958;32;20412;-68
2021/10/15 05:16:39;;;;;;;30.17;16.30;;;9.80;99.90;;;;;;4440777;32;20179;-67
2021/10/15 05:19:06;;;;;;;32.33;17.20;;;9.80;99.90;;;;;;4440629;32;20149;-69
2021/10/15 05:21:33;;;;;;;31.80;16.33;;;9.80;99.90;;;;;;4440403;32;20375;-68
2021/10/15 05:24:00;;;;;;;32.73;17.20;;;9.80;99.90;;;;;;4438705;32;20119;-68
2021/10/15 05:26:26;;;;;;;33.83;17.10;;;9.80;99.90;;;;;;4440410;32;20217;-67
2021/10/15 05:28:53;;;;;;;28.20;16.47;;;9.80;99.90;;;;;;4440501;32;20130;-69
2021/10/15 05:31:20;;;;;;;30.00;16.30;;;9.90;99.90;;;;;;4447321;32;20135;-68
2021/10/15 05:33:47;;;;;;;32.87;17.30;;;9.90;99.90;;;;;;4439097;32;20183;-68
2021/10/15 05:36:13;;;;;;;32.37;16.80;;;9.90;99.90;;;;;;4440032;32;20123;-68
2021/10/15 05:38:40;;;;;;;33.40;17.90;;;9.90;99.90;;;;;;4439803;32;20123;-68
2021/10/15 05:41:07;;;;;;;31.23;16.30;;;9.90;99.90;;;;;;4440185;32;20153;-67
2021/10/15 05:43:34;;;;;;;30.73;16.70;;;9.90;99.90;;;;;;4438822;32;20380;-68
2021/10/15 05:46:02;;;;;;;31.43;17.23;;;10.00;99.90;;;;;;4440780;32;20172;-67
2021/10/15 05:48:29;;;;;;;30.93;17.93;;;10.00;99.90;;;;;;4439094;32;20162;-68
2021/10/15 05:50:56;;;;;;;31.40;17.43;;;10.00;99.90;;;;;;4440229;32;20131;-68
2021/10/15 05:53:24;;;;;;;31.93;17.40;;;10.00;99.90;;;;;;4438915;32;20467;-68
2021/10/15 05:58:53;;;;;;;33.67;17.47;;;10.10;99.90;;;;;;4440864;32;20123;-67
2021/10/15 06:01:24;;;;;;;33.63;16.83;;;10.10;99.90;;;;;;4446599;32;20166;-67
2021/10/15 06:14:29;;;;;;;31.67;17.37;;;10.20;99.90;;;;;;4458209;32;20444;-79
2021/10/15 06:17:11;;;;;;;32.50;17.53;;;10.20;99.90;;;;;;4458074;32;20134;-67
2021/10/15 06:19:45;;;;;;;34.70;18.27;;;10.20;99.90;;;;;;4458980;32;20222;-69
2021/10/15 06:22:12;;;;;;;34.00;17.47;;;10.30;99.90;;;;;;4458155;32;20127;-67
2021/10/15 06:24:39;;;;;;;31.20;17.83;;;10.30;99.90;;;;;;4458491;32;20173;-68
2021/10/15 06:27:06;;;;;;;31.63;17.93;;;10.30;99.90;;;;;;4457180;32;20189;-68
2021/10/15 06:29:33;;;;;;;33.37;17.33;;;10.30;99.90;;;;;;4458508;32;20138;-68
2021/10/15 06:31:59;;;;;;;32.70;17.43;;;10.30;99.90;;;;;;4453203;32;20143;-67
2021/10/15 06:34:26;;;;;;;33.60;17.13;;;10.30;99.90;;;;;;4448600;32;20392;-67
2021/10/15 06:36:53;;;;;;;29.83;16.37;;;10.40;99.90;;;;;;4441146;32;20135;-67
2021/10/15 06:39:20;;;;;;;30.87;16.93;;;10.40;99.90;;;;;;4441010;32;20146;-65
2021/10/15 06:41:47;;;;;;;30.57;17.23;;;10.50;99.90;;;;;;4442322;32;20119;-67
2021/10/15 06:44:13;;;;;;;32.77;17.57;;;10.40;99.90;;;;;;4442644;32;20119;-67
2021/10/15 06:46:40;;;;;;;28.93;16.27;;;10.40;99.90;;;;;;4440762;32;20509;-66
2021/10/15 06:49:09;;;;;;;30.73;16.80;;;10.50;99.90;;;;;;4442656;32;20195;-66
2021/10/15 06:51:38;;;;;;;29.87;17.53;;;10.50;99.90;;;;;;4442487;32;20186;-67
2021/10/15 06:54:05;;;;;;;30.83;16.50;;;10.50;99.90;;;;;;4438631;32;20163;-66
2021/10/15 06:56:32;;;;;;;33.90;16.77;;;10.50;99.90;;;;;;4441604;32;20158;-66
2021/10/15 06:58:59;;;;;;;29.23;17.40;;;10.50;99.90;;;;;;4442568;32;20162;-66
2021/10/15 07:01:26;;;;;;;32.30;17.00;;;10.50;99.90;;;;;;4441380;32;20119;-67
2021/10/15 07:03:53;;;;;;;31.70;17.40;;;10.50;99.90;;;;;;4448366;32;20131;-66
2021/10/15 07:06:20;;;;;;;28.90;16.70;;;10.50;99.90;;;;;;4441741;32;20208;-65
2021/10/15 07:08:47;;;;;;;32.30;17.70;;;10.60;99.90;;;;;;4439748;32;20150;-65
2021/10/15 07:11:13;;;;;;;29.10;16.87;;;10.60;99.90;;;;;;4440849;32;20123;-66
2021/10/15 07:13:40;;;;;;;30.10;17.17;;;10.60;99.90;;;;;;4441670;32;20347;-66
2021/10/15 07:16:10;;;;;;;32.50;16.90;;;10.60;99.90;;;;;;4440849;32;20157;-65
2021/10/15 07:18:38;;;;;;;30.67;17.70;;;10.70;99.90;;;;;;4442190;32;20366;-66
2021/10/15 07:21:06;;;;;;;27.13;16.07;;;10.70;99.90;;;;;;4441892;32;20392;-65
2021/10/15 07:23:33;;;;;;;29.83;16.23;;;10.80;99.90;;;;;;4442239;32;20131;-66
2021/10/15 07:26:02;;;;;;;28.37;16.33;;;10.80;99.90;;;;;;4440014;32;20131;-65
2021/10/15 07:28:29;;;;;;;29.67;15.57;;;10.80;99.90;;;;;;4440984;32;20462;-66
2021/10/15 07:30:58;;;;;;;30.50;16.70;;;10.90;99.90;;;;;;4441683;32;20127;-66
2021/10/15 07:33:25;;;;;;;27.40;15.77;;;10.90;99.90;;;;;;4440197;32;20420;-66
2021/10/15 07:35:53;;;;;;;26.83;15.90;;;11.00;99.90;;;;;;4442252;32;20139;-66
2021/10/15 07:38:19;;;;;;;26.87;15.27;;;11.00;99.90;;;;;;4441627;32;20180;-66
2021/10/15 07:40:47;;;;;;;27.67;15.53;;;11.00;99.90;;;;;;4441636;32;20150;-66
2021/10/15 07:43:14;;;;;;;28.60;15.87;;;11.00;99.90;;;;;;4440608;32;20131;-65
2021/10/15 07:45:41;;;;;;;27.90;16.00;;;11.00;99.90;;;;;;4441132;32;20385;-65
2021/10/15 07:48:08;;;;;;;24.57;14.90;;;11.10;99.90;;;;;;4440142;32;20130;-66
2021/10/15 07:50:35;;;;;;;24.00;15.20;;;11.20;99.90;;;;;;4440838;32;20203;-65
2021/10/15 07:53:02;;;;;;;24.20;14.57;;;11.30;99.90;;;;;;4439948;32;20176;-66
2021/10/15 07:55:29;;;;;;;23.53;14.40;;;11.30;99.90;;;;;;4441684;32;20126;-66
2021/10/15 07:57:55;;;;;;;24.03;14.43;;;11.40;99.90;;;;;;4440154;32;20146;-65
2021/10/15 08:00:23;;;;;;;24.73;14.20;;;11.40;99.90;;;;;;4441100;32;20119;-66
2021/10/15 08:02:51;;;;;;;23.23;14.07;;;11.60;99.90;;;;;;4442021;32;20207;-67
2021/10/15 08:05:19;;;;;;;23.97;13.93;;;11.60;99.90;;;;;;4441863;32;20371;-66
2021/10/15 08:07:46;;;;;;;24.63;14.27;;;11.60;99.90;;;;;;4440387;32;20152;-66
2021/10/15 08:10:13;;;;;;;21.77;13.40;;;11.60;99.90;;;;;;4439970;32;20132;-65
2021/10/15 08:12:40;;;;;;;20.10;12.43;;;11.60;99.90;;;;;;4440577;32;20535;-66
2021/10/15 08:15:09;;;;;;;20.67;13.50;;;11.60;99.90;;;;;;4441748;32;20376;-65
2021/10/15 08:17:41;;;;;;;22.87;13.57;;;11.60;99.90;;;;;;4441408;32;20131;-66
2021/10/15 08:20:10;;;;;;;21.10;12.70;;;11.60;99.90;;;;;;4439386;32;20457;-66
2021/10/15 08:22:36;;;;;;;25.80;12.57;;;11.70;99.90;;;;;;4440858;32;20123;-65
2021/10/15 08:25:23;;;;;;;22.27;13.00;;;11.80;99.90;;;;;;4441590;32;20183;-66
2021/10/15 08:27:50;;;;;;;20.87;12.97;;;11.90;99.90;;;;;;4440946;32;20182;-64
2021/10/15 08:30:17;;;;;;;19.97;12.00;;;11.90;99.90;;;;;;4441435;32;20433;-65
2021/10/15 08:32:44;;;;;;;20.47;12.63;;;11.90;99.90;;;;;;4438903;32;20201;-65
2021/10/15 08:35:12;;;;;;;19.70;12.10;;;12.00;99.90;;;;;;4440886;32;20161;-65
2021/10/15 08:37:39;;;;;;;21.60;12.23;;;11.90;99.90;;;;;;4439032;32;20134;-65
2021/10/15 08:40:08;;;;;;;22.67;13.23;;;12.00;99.90;;;;;;4441400;32;20201;-66
2021/10/15 08:42:36;;;;;;;20.10;12.30;;;12.20;99.90;;;;;;4440929;32;20202;-65
2021/10/15 08:45:04;;;;;;;21.50;12.50;;;12.20;99.90;;;;;;4440505;32;20199;-65
2021/10/15 08:47:31;;;;;;;18.97;11.63;;;12.30;99.90;;;;;;4440606;32;20165;-65
2021/10/15 08:50:18;;;;;;;21.40;12.70;;;12.30;99.90;;;;;;4439025;32;20549;-65
2021/10/15 08:52:45;;;;;;;18.43;11.83;;;12.30;99.90;;;;;;4440740;32;20214;-65
2021/10/15 08:55:12;;;;;;;17.47;11.63;;;12.40;99.90;;;;;;4438787;32;20334;-66
2021/10/15 08:57:45;;;;;;;21.27;12.27;;;12.40;99.90;;;;;;4440515;32;20188;-64
2021/10/15 09:00:26;;;;;;;22.37;12.47;;;12.50;99.90;;;;;;4439387;32;20131;-64
2021/10/15 09:03:12;;;;;;;19.60;11.63;;;12.50;99.90;;;;;;4439562;32;20127;-64
2021/10/15 09:05:41;;;;;;;18.47;10.90;;;12.70;99.90;;;;;;4441014;32;20160;-65
2021/10/15 09:08:08;;;;;;;17.77;10.83;;;12.80;99.90;;;;;;4439273;32;20189;-64
2021/10/15 09:10:35;;;;;;;19.17;11.30;;;12.70;99.90;;;;;;4440970;32;20136;-65
2021/10/15 09:13:20;;;;;;;18.70;11.60;;;12.70;99.90;;;;;;4438783;32;20119;-64
2021/10/15 09:15:49;;;;;;;17.67;10.60;;;12.80;99.90;;;;;;4440074;32;20123;-64
2021/10/15 09:18:17;;;;;;;17.70;11.00;;;13.00;99.90;;;;;;4441046;32;20127;-66
2021/10/15 09:20:46;;;;;;;17.43;10.67;;;13.00;99.90;;;;;;4440790;32;20135;-66
2021/10/15 09:23:14;;;;;;;17.90;10.47;;;13.00;99.90;;;;;;4438316;32;20126;-65
2021/10/15 09:25:43;;;;;;;17.77;10.87;;;13.00;99.90;;;;;;4438942;32;20186;-64
2021/10/15 09:28:21;;;;;;;19.93;10.67;;;13.10;99.90;;;;;;4440612;32;20236;-64
2021/10/15 09:30:51;;;;;;;16.87;10.10;;;13.10;99.90;;;;;;4438809;32;20210;-64
2021/10/15 09:33:20;;;;;;;17.07;10.03;;;13.20;99.90;;;;;;4439065;32;20126;-64
2021/10/15 09:35:47;;;;;;;17.23;10.00;;;13.30;99.90;;;;;;4440475;32;20402;-64
2021/10/15 09:38:14;;;;;;;17.33;10.00;;;13.40;99.90;;;;;;4438637;32;20429;-64
2021/10/15 09:40:44;;;;;;;18.40;10.07;;;13.50;99.90;;;;;;4438911;32;20127;-64
2021/10/15 09:43:14;;;;;;;15.07;9.57;;;13.50;99.90;;;;;;4438935;32;20447;-65
2021/10/15 09:45:46;;;;;;;18.03;10.03;;;13.50;99.90;;;;;;4438926;32;20192;-64
2021/10/15 09:48:38;;;;;;;19.70;9.90;;;13.50;99.90;;;;;;4441311;32;20156;-64
2021/10/15 09:51:19;;;;;;;17.87;10.37;;;13.50;99.90;;;;;;4442838;32;20127;-64
2021/10/15 09:54:09;;;;;;;16.23;9.97;;;13.60;99.90;;;;;;4441956;32;20123;-64
2021/10/15 09:56:45;;;;;;;15.17;10.00;;;13.70;99.90;;;;;;4442434;32;20182;-64
2021/10/15 09:59:13;;;;;;;15.37;9.80;;;13.70;99.90;;;;;;4442923;32;20122;-65
2021/10/15 10:01:41;;;;;;;17.03;10.20;;;13.80;99.90;;;;;;4442026;32;20130;-65
2021/10/15 10:04:09;;;;;;;15.40;9.93;;;14.00;99.90;;;;;;4442124;32;20459;-64
2021/10/15 10:06:37;;;;;;;13.87;9.83;;;14.10;99.90;;;;;;4441956;32;20138;-64
2021/10/15 10:09:06;;;;;;;14.70;9.40;;;14.20;99.90;;;;;;4441995;32;20175;-64
2021/10/15 10:11:33;;;;;;;15.93;10.10;;;14.40;99.90;;;;;;4441599;32;20535;-65
2021/10/15 10:14:20;;;;;;;14.53;9.80;;;14.40;99.90;;;;;;4440867;32;20131;-63
2021/10/15 10:16:50;;;;;;;15.70;9.97;;;14.50;99.90;;;;;;4441531;32;20155;-64
2021/10/15 10:19:20;;;;;;;15.27;9.43;;;14.80;99.90;;;;;;4441659;32;20130;-64
2021/10/15 10:21:47;;;;;;;14.23;9.40;;;15.10;99.90;;;;;;4442782;32;20399;-64
2021/10/15 10:24:17;;;;;;;14.83;9.53;;;15.40;99.90;;;;;;4442731;32;20120;-65
2021/10/15 10:26:46;;;;;;;14.93;9.30;;;15.90;99.90;;;;;;4441068;32;20186;-64
2021/10/15 10:29:13;;;;;;;15.70;9.00;;;16.60;99.90;;;;;;4442809;32;20126;-64
2021/10/15 10:31:40;;;;;;;14.60;9.50;;;16.90;99.90;;;;;;4442945;32;20119;-65
2021/10/15 10:34:16;;;;;;;15.63;9.50;;;16.90;99.90;;;;;;4441188;32;20164;-64
2021/10/15 10:37:05;;;;;;;14.27;9.67;;;16.90;99.90;;;;;;4441190;32;20135;-64
2021/10/15 10:40:05;;;;;;;14.13;9.20;;;16.50;99.90;;;;;;4440831;32;20464;-64
2021/10/15 10:42:33;;;;;;;13.70;9.80;;;16.80;99.90;;;;;;4442500;32;20180;-64
2021/10/15 10:44:59;;;;;;;14.87;9.87;;;16.70;99.90;;;;;;4440672;32;20168;-64
2021/10/15 10:47:28;;;;;;;15.37;9.63;;;16.90;99.90;;;;;;4442668;32;20127;-64
2021/10/15 10:50:09;;;;;;;17.17;9.80;;;17.00;99.90;;;;;;4442580;32;20130;-64
2021/10/15 10:52:57;;;;;;;17.37;9.30;;;17.30;99.90;;;;;;4441266;32;20135;-65
2021/10/15 10:55:41;;;;;;;14.00;8.93;;;17.90;99.90;;;;;;4434603;32;20174;-64
2021/10/15 10:58:34;;;;;;;13.70;8.60;;;18.40;99.90;;;;;;4441715;32;20127;-64
2021/10/15 11:01:20;;;;;;;14.33;8.70;;;18.70;99.90;;;;;;4442505;32;20197;-64
2021/10/15 11:03:48;;;;;;;12.73;8.60;;;18.00;99.90;;;;;;4441244;32;20189;-65
2021/10/15 11:06:15;;;;;;;13.97;8.27;;;17.50;99.90;;;;;;4442381;32;20143;-63
2021/10/15 11:08:42;;;;;;;13.23;9.20;;;17.40;99.90;;;;;;4440673;32;20170;-64
2021/10/15 11:11:22;;;;;;;13.57;9.00;;;17.20;99.90;;;;;;4440584;32;20126;-65
2021/10/15 11:13:49;;;;;;;14.20;9.33;;;16.90;99.90;;;;;;4440014;32;20176;-64
2021/10/15 11:16:20;;;;;;;14.13;9.07;;;16.70;99.90;;;;;;4441808;32;20414;-65
2021/10/15 11:18:48;;;;;;;15.60;9.13;;;16.40;99.90;;;;;;4440420;32;20130;-65
2021/10/15 11:21:14;;;;;;;13.40;8.87;;;16.00;99.90;;;;;;4439986;32;20214;-64
2021/10/15 11:23:41;;;;;;;13.57;9.23;;;15.70;99.90;;;;;;4441318;32;20210;-65
2021/10/15 11:26:08;;;;;;;12.70;8.87;;;15.50;99.90;;;;;;4440220;32;20147;-65
2021/10/15 11:28:35;;;;;;;17.00;9.80;;;15.40;99.90;;;;;;4440469;32;20176;-65
2021/10/15 11:31:07;;;;;;;14.10;8.60;;;15.10;99.90;;;;;;4441553;32;20131;-65
2021/10/15 11:33:38;;;;;;;14.60;8.97;;;14.90;99.90;;;;;;4442306;32;20139;-64
2021/10/15 11:36:07;;;;;;;12.33;8.23;;;14.90;99.90;;;;;;4441683;32;20127;-65
2021/10/15 11:38:34;;;;;;;13.77;9.17;;;15.10;99.90;;;;;;4442153;32;20131;-64
2021/10/15 11:41:05;;;;;;;14.77;8.70;;;15.30;99.90;;;;;;4442228;32;20440;-64
2021/10/15 11:43:34;;;;;;;12.33;8.70;;;15.70;99.90;;;;;;4441870;32;20407;-64
2021/10/15 11:46:03;;;;;;;14.60;8.30;;;15.90;99.90;;;;;;4441151;32;20163;-64
2021/10/15 11:48:39;;;;;;;13.03;8.47;;;16.10;99.90;;;;;;4441926;32;20226;-63
2021/10/15 11:51:09;;;;;;;13.33;9.10;;;16.20;99.90;;;;;;4440154;32;20122;-65
2021/10/15 11:53:40;;;;;;;14.77;8.87;;;16.10;99.90;;;;;;4442041;32;20161;-64
2021/10/15 11:56:12;;;;;;;14.40;9.83;;;16.30;99.90;;;;;;4441560;32;20198;-64
2021/10/15 11:58:47;;;;;;;13.03;9.07;;;16.40;99.90;;;;;;4441491;32;20233;-66
2021/10/15 12:01:27;;;;;;;12.17;8.77;;;16.90;99.90;;;;;;4439686;32;20122;-65
2021/10/15 12:04:03;;;;;;;12.97;8.57;;;16.80;99.90;;;;;;4441615;32;20199;-65
2021/10/15 12:06:40;;;;;;;14.23;9.27;;;16.50;99.90;;;;;;4440185;32;20189;-64
2021/10/15 12:09:17;;;;;;;12.80;8.90;;;16.20;99.90;;;;;;4441415;32;20229;-64
2021/10/15 12:12:04;;;;;;;12.10;8.80;;;16.00;99.90;;;;;;4439293;32;20179;-64
2021/10/15 12:14:33;;;;;;;14.90;8.67;;;16.00;99.90;;;;;;4439871;32;20392;-64
2021/10/15 12:17:07;;;;;;;13.77;8.87;;;15.90;99.90;;;;;;4439112;32;20123;-64
2021/10/15 12:20:00;;;;;;;13.43;8.67;;;15.70;99.90;;;;;;4440579;32;20147;-65
2021/10/15 12:22:27;;;;;;;14.30;9.03;;;15.40;99.90;;;;;;4437990;32;20415;-65
2021/10/15 12:24:57;;;;;;;13.83;9.30;;;15.10;99.90;;;;;;4439761;32;20431;-65
2021/10/15 12:27:33;;;;;;;11.97;8.30;;;14.90;99.90;;;;;;4440890;32;20166;-65
2021/10/15 12:30:25;;;;;;;15.13;9.33;;;14.80;99.90;;;;;;4441093;32;20127;-65
2021/10/15 12:32:52;;;;;;;14.33;8.63;;;14.70;99.90;;;;;;4441474;32;20206;-64
2021/10/15 12:35:24;;;;;;;13.97;8.83;;;14.80;99.90;;;;;;4440815;32;20478;-65
2021/10/15 12:37:56;;;;;;;12.37;8.33;;;15.10;99.90;;;;;;4441043;32;20404;-64
2021/10/15 12:40:38;;;;;;;11.63;8.70;;;15.50;99.90;;;;;;4439174;32;20122;-64
2021/10/15 12:43:18;;;;;;;15.50;8.83;;;16.40;99.90;;;;;;4439068;32;20444;-64
2021/10/15 12:45:49;;;;;;;11.37;8.10;;;17.00;99.90;;;;;;4439452;32;20211;-64
2021/10/15 12:48:26;;;;;;;13.77;9.20;;;16.60;99.90;;;;;;4438938;32;20134;-64
2021/10/15 12:50:58;;;;;;;13.10;9.03;;;16.60;99.90;;;;;;4439133;32;20182;-64
2021/10/15 12:53:25;;;;;;;11.47;8.67;;;16.80;99.90;;;;;;4439158;32;20478;-64
2021/10/15 12:55:59;;;;;;;14.37;8.80;;;16.70;99.90;;;;;;4440762;32;20162;-63
2021/10/15 12:58:28;;;;;;;14.33;8.73;;;16.40;99.90;;;;;;4439226;32;20119;-65
2021/10/15 13:01:00;;;;;;;11.53;8.73;;;16.10;99.90;;;;;;4440754;32;20130;-63
2021/10/15 13:03:28;;;;;;;14.87;9.10;;;15.60;99.90;;;;;;4439282;32;20138;-64
2021/10/15 13:05:57;;;;;;;14.37;8.73;;;15.30;99.90;;;;;;4439236;32;20146;-65
2021/10/15 13:08:27;;;;;;;13.97;9.10;;;15.20;99.90;;;;;;4439589;32;20246;-64
2021/10/15 13:10:56;;;;;;;12.37;8.30;;;15.10;99.90;;;;;;4440761;32;20339;-64
2021/10/15 13:13:23;;;;;;;14.33;8.53;;;15.00;99.90;;;;;;4440457;32;20163;-64
2021/10/15 13:15:49;;;;;;;11.00;7.97;;;14.80;99.90;;;;;;4438899;32;20440;-64
2021/10/15 13:18:16;;;;;;;12.10;8.53;;;14.70;99.90;;;;;;4440072;32;20143;-64
2021/10/15 13:20:46;;;;;;;13.10;8.30;;;14.60;99.90;;;;;;4440212;32;20609;-64
2021/10/15 13:23:13;;;;;;;11.80;8.40;;;14.50;99.90;;;;;;4438943;32;20133;-64
2021/10/15 13:25:39;;;;;;;10.87;7.83;;;14.50;99.90;;;;;;4440362;32;20207;-65
2021/10/15 13:28:06;;;;;;;12.57;8.57;;;14.50;99.90;;;;;;4440419;32;20410;-65
2021/10/15 13:30:34;;;;;;;10.53;7.30;;;14.40;99.90;;;;;;4438431;32;20487;-64
2021/10/15 13:33:02;;;;;;;12.17;7.93;;;14.40;99.90;;;;;;4440392;32;20203;-65
2021/10/15 13:35:29;;;;;;;10.80;7.37;;;14.30;99.90;;;;;;4440594;32;20196;-65